Time;durP1;ratioP1;P1;durP2;ratioP2;P2;SDS_P1;SDS_P2;PMS_P1;PMS_P2;Temp;Humidity;BMP_temperature;BMP_pressure;BME280_temperature;BME280_humidity;BME280_pressure;Samples;Min_cycle;Max_cycle;Signal;HPM_P1;HPM_P2
2022/01/13 00:00:56;;;;;;;29.40;14.63;;;6.30;99.90;;;;;;6210497;23;20198;-86
2022/01/13 00:03:23;;;;;;;22.13;13.10;;;6.30;99.90;;;;;;6211787;23;20178;-86
2022/01/13 00:05:50;;;;;;;26.77;14.37;;;6.30;99.90;;;;;;6211758;23;20181;-79
2022/01/13 00:08:18;;;;;;;30.70;14.90;;;6.30;99.90;;;;;;6212031;23;20178;-85
2022/01/13 00:10:45;;;;;;;25.90;13.57;;;6.40;99.90;;;;;;6211126;23;20181;-87
2022/01/13 00:13:20;;;;;;;42.93;14.67;;;6.40;99.90;;;;;;6211962;23;20170;-85
2022/01/13 00:15:49;;;;;;;28.20;10.97;;;6.40;99.90;;;;;;6211804;23;20170;-84
2022/01/13 00:18:19;;;;;;;29.17;11.47;;;6.40;99.90;;;;;;6210909;23;20173;-86
2022/01/13 00:21:12;;;;;;;23.77;10.97;;;6.40;99.90;;;;;;6209963;23;20190;-87
2022/01/13 00:23:42;;;;;;;34.87;13.13;;;6.40;99.90;;;;;;6209697;23;20174;-86
2022/01/13 00:26:16;;;;;;;32.53;13.20;;;6.40;99.90;;;;;;6210120;23;20257;-86
2022/01/13 00:28:47;;;;;;;23.80;12.60;;;6.40;99.90;;;;;;6208866;23;20199;-83
2022/01/13 00:31:17;;;;;;;43.47;14.87;;;6.40;99.90;;;;;;6208631;23;20169;-86
2022/01/13 00:33:46;;;;;;;51.63;14.27;;;6.30;99.90;;;;;;6210552;23;20177;-85
2022/01/13 00:36:13;;;;;;;20.60;11.00;;;6.30;99.90;;;;;;6208673;23;20178;-84
2022/01/13 00:38:40;;;;;;;23.83;12.47;;;6.30;99.90;;;;;;6209372;23;20174;-84
2022/01/13 00:41:07;;;;;;;33.23;12.27;;;6.30;99.90;;;;;;6209639;23;20204;-82
2022/01/13 00:43:37;;;;;;;27.43;12.10;;;6.30;99.90;;;;;;6208442;23;20498;-84
2022/01/13 00:46:06;;;;;;;26.03;11.33;;;6.30;99.90;;;;;;6209363;23;20184;-83
2022/01/13 00:48:32;;;;;;;27.53;11.83;;;6.30;99.90;;;;;;6210000;23;20173;-84
2022/01/13 00:51:00;;;;;;;64.27;14.10;;;6.30;99.90;;;;;;6210330;23;20181;-81
2022/01/13 00:53:26;;;;;;;40.07;11.63;;;6.30;99.90;;;;;;6209334;23;20181;-86
2022/01/13 00:55:59;;;;;;;69.97;17.43;;;6.40;99.90;;;;;;6208880;23;20190;-85
2022/01/13 00:58:27;;;;;;;82.10;21.53;;;6.40;99.90;;;;;;6210122;23;20166;-85
2022/01/13 01:00:54;;;;;;;43.83;13.73;;;6.40;99.90;;;;;;6208196;23;20951;-86
2022/01/13 01:03:22;;;;;;;41.33;11.43;;;6.40;99.90;;;;;;6209033;23;20186;-85
2022/01/13 01:05:49;;;;;;;24.43;10.10;;;6.40;99.90;;;;;;6208669;23;20174;-81
2022/01/13 01:08:16;;;;;;;32.00;12.87;;;6.50;99.90;;;;;;6208277;23;20170;-81
2022/01/13 01:10:45;;;;;;;46.13;14.50;;;6.50;99.90;;;;;;6207732;23;20169;-82
2022/01/13 01:13:14;;;;;;;50.40;17.20;;;6.50;99.90;;;;;;6207704;23;20177;-84
2022/01/13 01:15:45;;;;;;;39.30;14.90;;;6.50;99.90;;;;;;6208291;23;20244;-81
2022/01/13 01:18:23;;;;;;;39.90;16.53;;;6.40;99.90;;;;;;6207630;23;20555;-84
2022/01/13 01:21:14;;;;;;;44.70;15.47;;;6.50;99.90;;;;;;6207744;23;20196;-81
2022/01/13 01:23:57;;;;;;;31.87;13.53;;;6.50;99.90;;;;;;6205194;23;20514;-83
2022/01/13 01:26:34;;;;;;;79.67;17.30;;;6.50;99.90;;;;;;6210456;23;20193;-87
2022/01/13 01:29:16;;;;;;;49.10;17.90;;;6.50;99.90;;;;;;6210818;23;20193;-86
2022/01/13 01:31:47;;;;;;;53.57;16.83;;;6.50;99.90;;;;;;6211284;23;20169;-85
2022/01/13 01:34:25;;;;;;;45.97;15.00;;;6.50;99.90;;;;;;6211233;23;20245;-86
2022/01/13 01:36:55;;;;;;;36.00;17.17;;;6.50;99.90;;;;;;6211788;23;20218;-86
2022/01/13 01:39:22;;;;;;;54.37;18.53;;;6.60;99.90;;;;;;6210419;23;20649;-86
2022/01/13 01:41:52;;;;;;;56.10;20.37;;;6.50;99.90;;;;;;6210098;23;20205;-85
2022/01/13 01:44:27;;;;;;;41.43;16.83;;;6.50;99.90;;;;;;6210354;23;20170;-86
2022/01/13 01:46:54;;;;;;;57.23;21.83;;;6.50;99.90;;;;;;6210612;23;20173;-86
2022/01/13 01:49:23;;;;;;;36.53;19.13;;;6.50;99.90;;;;;;6209581;23;20178;-84
2022/01/13 01:51:54;;;;;;;57.73;19.87;;;6.50;99.90;;;;;;6209776;23;20638;-87
2022/01/13 01:54:21;;;;;;;34.57;20.10;;;6.50;99.90;;;;;;6208388;23;20163;-80
2022/01/13 01:56:48;;;;;;;43.93;21.00;;;6.50;99.90;;;;;;6209636;23;20212;-82
2022/01/13 01:59:19;;;;;;;49.07;19.87;;;6.50;99.90;;;;;;6208291;23;20166;-82
2022/01/13 02:01:47;;;;;;;47.43;17.57;;;6.50;99.90;;;;;;6210240;23;20189;-85
2022/01/13 02:04:14;;;;;;;69.37;21.33;;;6.50;99.90;;;;;;6210725;23;20189;-85
2022/01/13 02:06:43;;;;;;;46.20;19.67;;;6.40;99.90;;;;;;6210028;23;20839;-85
2022/01/13 02:09:15;;;;;;;59.27;20.93;;;6.40;99.90;;;;;;6210176;23;20564;-84
2022/01/13 02:11:44;;;;;;;30.90;18.57;;;6.40;99.90;;;;;;6208849;23;20163;-85
2022/01/13 02:14:31;;;;;;;42.13;20.00;;;6.40;99.90;;;;;;6208539;23;20586;-83
2022/01/13 02:17:00;;;;;;;45.70;19.80;;;6.40;99.90;;;;;;6208330;23;20197;-85
2022/01/13 02:19:27;;;;;;;40.17;21.03;;;6.40;99.90;;;;;;6209290;23;20229;-82
2022/01/13 02:21:55;;;;;;;41.63;21.93;;;6.40;99.90;;;;;;6208912;23;20201;-82
2022/01/13 02:24:22;;;;;;;45.83;21.63;;;6.40;99.90;;;;;;6225214;22;20205;-85
2022/01/13 02:26:49;;;;;;;55.63;21.77;;;6.40;99.90;;;;;;6240709;23;20684;-86
2022/01/13 02:29:16;;;;;;;45.43;19.83;;;6.40;99.90;;;;;;6240957;23;20172;-84
2022/01/13 02:31:43;;;;;;;33.93;19.40;;;6.40;99.90;;;;;;6240473;23;20169;-86
2022/01/13 02:34:10;;;;;;;49.73;22.47;;;6.40;99.90;;;;;;6241912;23;20184;-86
2022/01/13 02:36:37;;;;;;;43.80;20.20;;;6.40;99.90;;;;;;6239772;23;20169;-82
2022/01/13 02:39:06;;;;;;;35.03;18.43;;;6.40;99.90;;;;;;6240714;23;20865;-82
2022/01/13 02:41:33;;;;;;;39.53;20.50;;;6.40;99.90;;;;;;6215571;23;20275;-82
2022/01/13 02:44:00;;;;;;;40.70;20.50;;;6.40;99.90;;;;;;6210932;23;20177;-83
2022/01/13 02:46:43;;;;;;;40.23;20.57;;;6.40;99.90;;;;;;6209762;23;20170;-83
2022/01/13 02:49:12;;;;;;;40.33;19.00;;;6.50;99.90;;;;;;6209949;23;20248;-82
2022/01/13 02:51:41;;;;;;;48.13;19.30;;;6.50;99.90;;;;;;6210091;23;20171;-81
2022/01/13 02:54:10;;;;;;;51.33;21.67;;;6.50;99.90;;;;;;6208402;23;20174;-83
2022/01/13 02:56:38;;;;;;;49.20;21.73;;;6.50;99.90;;;;;;6206511;23;20166;-84
2022/01/13 02:59:07;;;;;;;62.43;21.40;;;6.50;99.90;;;;;;6211364;23;20170;-85
2022/01/13 03:01:34;;;;;;;43.57;19.23;;;6.50;99.90;;;;;;6212419;23;20221;-84
2022/01/13 03:04:05;;;;;;;92.80;22.10;;;6.50;99.90;;;;;;6212608;23;20182;-85
2022/01/13 03:06:35;;;;;;;45.33;19.13;;;6.40;99.90;;;;;;6211933;23;20173;-86
2022/01/13 03:09:04;;;;;;;64.20;19.77;;;6.40;99.90;;;;;;6210729;23;20248;-86
2022/01/13 03:11:35;;;;;;;29.57;14.77;;;6.40;99.90;;;;;;6211157;23;20185;-87
2022/01/13 03:14:03;;;;;;;35.57;16.60;;;6.40;99.90;;;;;;6210260;23;20208;-83
2022/01/13 03:16:30;;;;;;;51.07;19.30;;;6.40;99.90;;;;;;6210547;23;20197;-85
2022/01/13 03:18:57;;;;;;;64.23;21.33;;;6.40;99.90;;;;;;6211687;23;20174;-83
2022/01/13 03:21:24;;;;;;;48.50;19.97;;;6.40;99.90;;;;;;6211614;23;20201;-83
2022/01/13 03:23:51;;;;;;;41.57;19.37;;;6.40;99.90;;;;;;6209977;23;20478;-84
2022/01/13 03:26:20;;;;;;;41.87;17.53;;;6.40;99.90;;;;;;6209377;23;20173;-84
2022/01/13 03:28:54;;;;;;;34.43;16.23;;;6.50;99.90;;;;;;6211211;23;20189;-85
2022/01/13 03:31:23;;;;;;;44.33;16.33;;;6.50;99.90;;;;;;6211908;23;20427;-83
2022/01/13 03:33:53;;;;;;;41.37;14.20;;;6.40;99.90;;;;;;6184571;23;20256;-82
2022/01/13 03:36:20;;;;;;;32.17;15.73;;;6.40;99.90;;;;;;6210646;23;20232;-82
2022/01/13 03:38:47;;;;;;;46.27;17.47;;;6.50;99.90;;;;;;6211262;23;20178;-81
2022/01/13 03:41:15;;;;;;;59.13;23.50;;;6.50;99.90;;;;;;6209949;23;20194;-82
2022/01/13 03:43:42;;;;;;;64.80;20.70;;;6.50;99.90;;;;;;6209732;23;20173;-85
2022/01/13 03:46:11;;;;;;;47.00;17.87;;;6.50;99.90;;;;;;6210486;23;20193;-86
2022/01/13 03:48:37;;;;;;;47.13;18.53;;;6.50;99.90;;;;;;6210475;23;20174;-83
2022/01/13 03:51:04;;;;;;;41.20;16.03;;;6.50;99.90;;;;;;6210182;23;20571;-81
2022/01/13 03:54:15;;;;;;;74.50;17.33;;;6.50;99.90;;;;;;6210935;23;20181;-84
2022/01/13 03:57:22;;;;;;;38.27;16.73;;;6.50;99.90;;;;;;6209666;23;20177;-82
2022/01/13 04:00:47;;;;;;;51.67;20.57;;;6.50;99.90;;;;;;6211040;23;20166;-85
2022/01/13 04:03:15;;;;;;;60.23;20.10;;;6.50;99.90;;;;;;6211011;23;20224;-84
2022/01/13 04:06:02;;;;;;;44.00;19.13;;;6.60;99.90;;;;;;6210005;23;20174;-87
2022/01/13 04:08:29;;;;;;;60.60;21.13;;;6.60;99.90;;;;;;6208139;23;20467;-82
2022/01/13 04:11:15;;;;;;;72.83;21.33;;;6.60;99.90;;;;;;6209356;23;20169;-84
2022/01/13 04:13:50;;;;;;;71.17;21.73;;;6.60;99.90;;;;;;6208990;23;20161;-81
2022/01/13 04:16:18;;;;;;;49.87;20.03;;;6.60;99.90;;;;;;6209885;23;20162;-85
2022/01/13 04:18:48;;;;;;;47.80;20.57;;;6.60;99.90;;;;;;6208922;23;20567;-82
2022/01/13 04:21:15;;;;;;;59.57;21.33;;;6.70;99.90;;;;;;6208343;23;20198;-81
2022/01/13 04:23:42;;;;;;;53.00;19.97;;;6.70;99.90;;;;;;6207082;23;20206;-83
2022/01/13 04:26:09;;;;;;;65.43;19.77;;;6.70;99.90;;;;;;6209352;23;20170;-84
2022/01/13 04:28:37;;;;;;;51.30;18.90;;;6.70;99.90;;;;;;6206780;23;20185;-84
2022/01/13 04:31:04;;;;;;;58.30;20.37;;;6.70;99.90;;;;;;6208250;23;20163;-86
2022/01/13 04:33:33;;;;;;;56.03;17.37;;;6.70;99.90;;;;;;6210607;23;20181;-83
2022/01/13 04:36:03;;;;;;;42.60;18.03;;;6.70;99.90;;;;;;6210975;23;20178;-84
2022/01/13 04:38:30;;;;;;;55.13;18.17;;;6.60;99.90;;;;;;6211013;23;20168;-83
2022/01/13 04:41:00;;;;;;;54.77;17.43;;;6.60;99.90;;;;;;6210553;23;20212;-84
2022/01/13 04:43:29;;;;;;;40.20;15.10;;;6.60;99.90;;;;;;6209441;23;20174;-85
2022/01/13 04:45:56;;;;;;;29.87;14.20;;;6.60;99.90;;;;;;6209733;23;20185;-81
2022/01/13 04:48:24;;;;;;;59.07;19.63;;;6.60;99.90;;;;;;6209352;23;20173;-82
2022/01/13 04:50:51;;;;;;;39.83;17.50;;;6.70;99.90;;;;;;6210764;23;20178;-84
2022/01/13 04:53:19;;;;;;;48.40;17.40;;;6.70;99.90;;;;;;6210485;23;20178;-82
2022/01/13 04:55:52;;;;;;;36.53;16.17;;;6.70;99.90;;;;;;6211472;23;20190;-87
2022/01/13 04:58:21;;;;;;;29.83;15.50;;;6.70;99.90;;;;;;6211704;23;20188;-83
2022/01/13 05:00:48;;;;;;;60.40;17.50;;;6.70;99.90;;;;;;6209378;23;20177;-81
2022/01/13 05:03:15;;;;;;;54.40;19.70;;;6.70;99.90;;;;;;6210269;23;20666;-86
2022/01/13 05:05:42;;;;;;;47.20;17.03;;;6.70;99.90;;;;;;6209457;23;20193;-83
2022/01/13 05:08:08;;;;;;;59.70;17.43;;;6.70;99.90;;;;;;6208663;23;20177;-83
2022/01/13 05:10:37;;;;;;;35.63;12.57;;;6.80;99.90;;;;;;6207490;23;20625;-82
2022/01/13 05:13:08;;;;;;;29.90;14.10;;;6.80;99.90;;;;;;6208362;23;20170;-83
2022/01/13 05:15:37;;;;;;;37.90;15.90;;;6.80;99.90;;;;;;6207110;23;20170;-84
2022/01/13 05:18:18;;;;;;;30.07;14.00;;;6.80;99.90;;;;;;6209275;23;20170;-84
2022/01/13 05:20:51;;;;;;;45.53;14.13;;;6.80;99.90;;;;;;6208317;23;20249;-84
2022/01/13 05:23:18;;;;;;;31.17;13.37;;;6.80;99.90;;;;;;6208129;23;20244;-83
2022/01/13 05:25:46;;;;;;;29.10;13.23;;;6.90;99.90;;;;;;6207968;23;20177;-82
2022/01/13 05:28:14;;;;;;;64.33;15.27;;;6.90;99.90;;;;;;6207234;23;20194;-83
2022/01/13 05:30:41;;;;;;;33.23;13.67;;;6.90;99.90;;;;;;6207912;23;20166;-80
2022/01/13 05:33:08;;;;;;;34.40;14.20;;;6.90;99.90;;;;;;6207656;23;20169;-84
2022/01/13 05:35:36;;;;;;;39.40;14.63;;;6.90;99.90;;;;;;6206279;23;20172;-82
2022/01/13 05:38:05;;;;;;;50.23;15.93;;;6.90;99.90;;;;;;6206592;23;20208;-81
2022/01/13 05:40:33;;;;;;;68.03;17.50;;;6.90;99.90;;;;;;6207436;23;20198;-82
2022/01/13 05:43:02;;;;;;;43.30;17.40;;;6.90;99.90;;;;;;6206516;23;20227;-83
2022/01/13 05:45:32;;;;;;;60.70;17.80;;;6.90;99.90;;;;;;6208007;23;20170;-80
2022/01/13 05:48:00;;;;;;;67.50;17.70;;;6.90;99.90;;;;;;6207504;23;20177;-80
2022/01/13 05:50:29;;;;;;;29.63;12.97;;;6.90;99.90;;;;;;6206330;23;20461;-83
2022/01/13 05:52:55;;;;;;;32.37;13.73;;;6.90;99.90;;;;;;6208218;23;20176;-85
2022/01/13 05:55:22;;;;;;;25.10;13.53;;;7.00;99.90;;;;;;6206561;23;20166;-81
2022/01/13 05:57:49;;;;;;;35.13;15.07;;;7.00;99.90;;;;;;6207083;23;20228;-82
2022/01/13 06:00:19;;;;;;;46.27;17.40;;;7.00;99.90;;;;;;6206471;23;20174;-83
2022/01/13 06:02:46;;;;;;;55.80;18.57;;;7.00;99.90;;;;;;6208539;23;20861;-82
2022/01/13 06:05:13;;;;;;;42.73;18.30;;;7.00;99.90;;;;;;6211634;23;20184;-86
2022/01/13 06:07:40;;;;;;;65.60;18.93;;;7.00;99.90;;;;;;6210425;23;20170;-85
2022/01/13 06:10:09;;;;;;;61.90;21.43;;;7.00;99.90;;;;;;6210663;23;20174;-84
2022/01/13 06:12:37;;;;;;;46.97;18.73;;;7.00;99.90;;;;;;6210645;23;20209;-83
2022/01/13 06:15:06;;;;;;;37.23;17.87;;;7.10;99.90;;;;;;6212408;23;20858;-85
2022/01/13 06:17:35;;;;;;;41.77;17.90;;;7.10;99.90;;;;;;6210615;23;20444;-84
2022/01/13 06:20:01;;;;;;;61.20;17.90;;;7.10;99.90;;;;;;6213110;23;20182;-85
2022/01/13 06:22:28;;;;;;;66.90;18.03;;;7.10;99.90;;;;;;6212643;23;20197;-84
2022/01/13 06:24:55;;;;;;;59.33;18.53;;;7.10;99.90;;;;;;6212207;23;20202;-83
2022/01/13 06:27:23;;;;;;;53.60;18.43;;;7.10;99.90;;;;;;6225648;22;20780;-84
2022/01/13 06:29:51;;;;;;;68.37;17.70;;;7.10;99.90;;;;;;6240746;23;20205;-82
2022/01/13 06:32:18;;;;;;;55.40;17.67;;;7.10;99.90;;;;;;6241229;23;20243;-83
2022/01/13 06:34:46;;;;;;;46.57;17.57;;;7.10;99.90;;;;;;6241067;23;20173;-83
2022/01/13 06:37:13;;;;;;;58.33;18.73;;;7.10;99.90;;;;;;6240367;23;20177;-84
2022/01/13 06:39:40;;;;;;;50.90;18.43;;;7.10;99.90;;;;;;6237698;23;20177;-86
2022/01/13 06:42:07;;;;;;;44.30;17.90;;;7.10;99.90;;;;;;6210182;23;20792;-84
2022/01/13 06:44:34;;;;;;;62.93;18.43;;;7.10;99.90;;;;;;6208674;23;20178;-82
2022/01/13 06:47:01;;;;;;;53.57;19.23;;;7.10;99.90;;;;;;6210426;23;20174;-85
2022/01/13 06:49:28;;;;;;;57.37;18.93;;;7.20;99.90;;;;;;6210416;23;20170;-83
2022/01/13 06:51:56;;;;;;;42.83;17.07;;;7.20;99.90;;;;;;6210215;23;20170;-81
2022/01/13 06:54:24;;;;;;;42.70;18.40;;;7.20;99.90;;;;;;6208240;23;20177;-84
2022/01/13 06:56:51;;;;;;;63.93;22.97;;;7.20;99.90;;;;;;6210261;23;20174;-84
2022/01/13 06:59:18;;;;;;;53.37;21.67;;;7.20;99.90;;;;;;6210600;23;20181;-81
2022/01/13 07:01:45;;;;;;;72.10;27.87;;;7.20;99.90;;;;;;6210407;23;20181;-83
2022/01/13 07:04:13;;;;;;;74.03;25.17;;;7.20;99.90;;;;;;6210753;23;20182;-85
2022/01/13 07:06:42;;;;;;;65.83;25.60;;;7.20;99.90;;;;;;6207789;23;20626;-83
2022/01/13 07:09:13;;;;;;;54.63;21.70;;;7.20;99.90;;;;;;6209600;23;20170;-83
2022/01/13 07:11:40;;;;;;;56.30;24.20;;;7.20;99.90;;;;;;6209482;23;20170;-82
2022/01/13 07:14:07;;;;;;;66.60;24.67;;;7.20;99.90;;;;;;6209313;23;20170;-85
2022/01/13 07:16:35;;;;;;;63.20;23.10;;;7.20;99.90;;;;;;6208290;23;20170;-82
2022/01/13 07:19:03;;;;;;;56.53;23.23;;;7.20;99.90;;;;;;6209501;23;20556;-83
2022/01/13 07:21:30;;;;;;;78.47;25.07;;;7.20;99.90;;;;;;6207851;23;20175;-82
2022/01/13 07:23:57;;;;;;;60.27;22.33;;;7.20;99.90;;;;;;6209195;23;20193;-85
2022/01/13 07:26:26;;;;;;;59.67;22.40;;;7.20;99.90;;;;;;6209196;23;20196;-82
2022/01/13 07:28:52;;;;;;;53.63;20.17;;;7.20;99.90;;;;;;6209179;23;20170;-83
2022/01/13 07:31:19;;;;;;;70.00;22.73;;;7.20;99.90;;;;;;6208897;23;20167;-84
2022/01/13 07:33:46;;;;;;;73.63;22.27;;;7.20;99.90;;;;;;6205459;23;20200;-85
2022/01/13 07:36:14;;;;;;;49.70;19.67;;;7.20;99.90;;;;;;6210044;23;20182;-82
2022/01/13 07:38:40;;;;;;;51.60;20.13;;;7.20;99.90;;;;;;6210400;23;20173;-84
2022/01/13 07:41:07;;;;;;;90.27;21.37;;;7.20;99.90;;;;;;6210066;23;20196;-83
2022/01/13 07:43:36;;;;;;;60.27;20.13;;;7.20;99.90;;;;;;6208784;23;20193;-84
2022/01/13 07:46:02;;;;;;;88.60;23.53;;;7.20;99.90;;;;;;6209079;23;20181;-83
2022/01/13 07:48:29;;;;;;;59.10;19.57;;;7.20;99.90;;;;;;6208593;23;20176;-83
2022/01/13 07:50:56;;;;;;;50.43;19.97;;;7.20;99.90;;;;;;6209283;23;20180;-83
2022/01/13 07:53:23;;;;;;;95.30;22.27;;;7.20;99.90;;;;;;6209284;23;20185;-82
2022/01/13 07:55:50;;;;;;;51.40;22.07;;;7.20;99.90;;;;;;6209743;23;20178;-81
2022/01/13 07:58:17;;;;;;;65.17;22.80;;;7.20;99.90;;;;;;6211123;23;20208;-85
2022/01/13 08:00:45;;;;;;;52.50;21.10;;;7.20;99.90;;;;;;6210164;23;20178;-86
2022/01/13 08:03:12;;;;;;;61.23;23.87;;;7.20;99.90;;;;;;6209409;23;20194;-87
2022/01/13 08:05:40;;;;;;;61.33;23.30;;;7.20;99.90;;;;;;6210489;23;20178;-85
2022/01/13 08:08:07;;;;;;;76.93;28.60;;;7.20;99.90;;;;;;6211460;23;20184;-84
2022/01/13 08:10:34;;;;;;;88.30;30.63;;;7.30;99.90;;;;;;6210538;23;20323;-83
2022/01/13 08:13:00;;;;;;;73.93;28.83;;;7.30;99.90;;;;;;6211399;23;20198;-86
2022/01/13 08:15:28;;;;;;;80.53;28.10;;;7.30;99.90;;;;;;6209767;23;20834;-85
2022/01/13 08:20:40;;;;;;;68.47;25.17;;;7.40;99.90;;;;;;6209192;23;20676;-87
2022/01/13 08:23:09;;;;;;;71.27;25.87;;;7.40;99.90;;;;;;6210076;23;20198;-85
2022/01/13 08:25:36;;;;;;;73.00;26.10;;;7.50;99.90;;;;;;6210046;23;20244;-86
2022/01/13 08:28:04;;;;;;;68.03;26.70;;;7.50;99.90;;;;;;6209253;23;20202;-85
2022/01/13 08:30:31;;;;;;;64.40;22.97;;;7.50;99.90;;;;;;6208940;23;20566;-85
2022/01/13 08:33:03;;;;;;;55.07;21.63;;;7.50;99.90;;;;;;6189963;23;20685;-84
2022/01/13 08:35:30;;;;;;;61.23;22.57;;;7.60;99.90;;;;;;6211036;23;20577;-84
2022/01/13 08:38:05;;;;;;;51.00;20.50;;;7.60;99.90;;;;;;6210379;23;20170;-85
2022/01/13 08:40:34;;;;;;;59.03;22.33;;;7.60;99.90;;;;;;6210043;23;20200;-86
2022/01/13 08:43:02;;;;;;;49.13;21.23;;;7.70;99.90;;;;;;6210503;23;20304;-83
2022/01/13 08:45:29;;;;;;;68.40;23.67;;;7.60;99.90;;;;;;6208021;23;20217;-83
2022/01/13 08:48:00;;;;;;;59.73;23.20;;;7.70;99.90;;;;;;6209252;23;20174;-84
2022/01/13 08:50:29;;;;;;;60.47;23.33;;;7.70;99.90;;;;;;6208047;23;20555;-84
2022/01/13 08:52:56;;;;;;;61.57;24.20;;;7.70;99.90;;;;;;6209780;23;20174;-84
2022/01/13 08:55:23;;;;;;;63.67;23.60;;;7.70;99.90;;;;;;6209902;23;20174;-84
2022/01/13 08:57:49;;;;;;;66.03;22.57;;;7.70;99.90;;;;;;6209558;23;20165;-83
2022/01/13 09:00:16;;;;;;;67.37;25.37;;;7.70;99.90;;;;;;6210268;23;20170;-83
2022/01/13 09:02:44;;;;;;;65.70;24.03;;;7.80;99.90;;;;;;6209310;23;20232;-82
2022/01/13 09:05:14;;;;;;;65.33;22.93;;;7.80;99.90;;;;;;6208507;23;20174;-84
2022/01/13 09:07:42;;;;;;;58.67;22.23;;;7.80;99.90;;;;;;6206035;23;20461;-86
2022/01/13 09:10:10;;;;;;;71.87;26.10;;;7.80;99.90;;;;;;6209709;23;20174;-83
2022/01/13 09:12:37;;;;;;;62.30;23.87;;;7.90;99.90;;;;;;6208825;23;20166;-83
2022/01/13 09:15:16;;;;;;;65.17;23.43;;;7.90;99.90;;;;;;6208553;23;20654;-82
2022/01/13 09:17:43;;;;;;;70.87;24.23;;;7.90;99.90;;;;;;6209676;23;20170;-85
2022/01/13 09:20:11;;;;;;;66.23;26.27;;;7.90;99.90;;;;;;6207546;23;20285;-84
2022/01/13 09:22:39;;;;;;;66.57;26.80;;;8.00;99.90;;;;;;6208433;23;20198;-84
2022/01/13 09:25:10;;;;;;;68.03;28.70;;;8.00;99.90;;;;;;6209146;23;20174;-83
2022/01/13 09:27:39;;;;;;;78.47;31.60;;;8.00;99.90;;;;;;6207870;23;20206;-82
2022/01/13 09:30:07;;;;;;;76.03;30.30;;;8.10;99.90;;;;;;6209541;23;20248;-82
2022/01/13 09:32:35;;;;;;;76.63;29.37;;;8.10;99.90;;;;;;6207638;23;20590;-83
2022/01/13 09:35:02;;;;;;;82.37;30.63;;;8.20;99.90;;;;;;6208659;23;20433;-83
2022/01/13 09:37:29;;;;;;;74.20;26.67;;;8.20;99.90;;;;;;6210789;23;20177;-82
2022/01/13 09:39:56;;;;;;;67.50;24.83;;;8.30;99.90;;;;;;6211584;23;20196;-81
2022/01/13 09:42:27;;;;;;;47.50;22.27;;;8.30;99.90;;;;;;6210708;23;20595;-82
2022/01/13 09:44:55;;;;;;;57.77;22.80;;;8.30;99.90;;;;;;6213062;23;20173;-83
2022/01/13 09:47:21;;;;;;;56.17;21.90;;;8.30;99.90;;;;;;6212772;23;20169;-85
2022/01/13 09:49:50;;;;;;;56.40;26.27;;;8.30;99.90;;;;;;6213950;23;20743;-84
2022/01/13 09:52:17;;;;;;;59.97;30.33;;;8.30;99.90;;;;;;6214439;23;20180;-86
2022/01/13 09:54:44;;;;;;;58.60;28.37;;;8.30;99.90;;;;;;6213916;23;20174;-86
2022/01/13 09:57:11;;;;;;;53.37;28.00;;;8.30;99.90;;;;;;6214144;23;20178;-86
2022/01/13 09:59:39;;;;;;;61.03;30.17;;;8.40;99.90;;;;;;6213356;23;20177;-85
2022/01/13 10:02:06;;;;;;;64.60;29.50;;;8.40;99.90;;;;;;6213583;23;20174;-87
2022/01/13 10:04:48;;;;;;;57.13;25.03;;;8.40;99.90;;;;;;6213288;23;20201;-84
2022/01/13 10:07:18;;;;;;;47.47;22.97;;;8.40;99.90;;;;;;6213233;23;20169;-84
2022/01/13 10:09:55;;;;;;;56.53;27.60;;;8.50;99.90;;;;;;6212938;23;20256;-82
2022/01/13 10:12:28;;;;;;;57.77;25.97;;;8.50;99.90;;;;;;6213549;23;20173;-86
2022/01/13 10:17:51;;;;;;;65.10;23.43;;;8.50;99.90;;;;;;6213196;23;20173;-83
2022/01/13 10:20:20;;;;;;;61.00;25.00;;;8.50;99.90;;;;;;6213641;23;20197;-85
2022/01/13 10:22:48;;;;;;;62.60;28.10;;;8.50;99.90;;;;;;6213481;23;20173;-84
2022/01/13 10:25:30;;;;;;;81.70;30.73;;;8.50;99.90;;;;;;6213262;23;20166;-84
2022/01/13 10:28:11;;;;;;;83.60;33.07;;;8.50;99.90;;;;;;6213039;23;20198;-86
2022/01/13 10:30:40;;;;;;;81.27;33.27;;;8.50;99.90;;;;;;6213206;23;20177;-84
2022/01/13 10:33:16;;;;;;;77.33;34.37;;;8.40;99.90;;;;;;6214942;23;20181;-84
2022/01/13 10:35:43;;;;;;;78.30;32.57;;;8.40;99.90;;;;;;6213556;23;20193;-84
2022/01/13 10:38:13;;;;;;;72.83;33.33;;;8.40;99.90;;;;;;6212652;23;20167;-85
2022/01/13 10:40:41;;;;;;;65.10;30.67;;;8.40;99.90;;;;;;6209164;23;20654;-84
2022/01/13 10:43:13;;;;;;;69.03;32.43;;;8.40;99.90;;;;;;6214028;23;20208;-84
2022/01/13 10:45:44;;;;;;;65.80;32.60;;;8.40;99.90;;;;;;6213590;23;20175;-84
2022/01/13 10:48:13;;;;;;;75.53;35.80;;;8.40;99.90;;;;;;6212730;23;20163;-85
2022/01/13 10:50:43;;;;;;;60.80;29.90;;;8.40;99.90;;;;;;6212512;23;20525;-85
2022/01/13 10:53:13;;;;;;;58.40;30.67;;;8.40;99.90;;;;;;6212070;23;20185;-84
2022/01/13 10:55:44;;;;;;;55.50;30.70;;;8.40;99.90;;;;;;6211778;23;20166;-85
2022/01/13 10:58:13;;;;;;;84.27;38.83;;;8.40;99.90;;;;;;6211846;23;20559;-85
2022/01/13 11:00:42;;;;;;;81.23;38.20;;;8.40;99.90;;;;;;6210014;23;20174;-85
2022/01/13 11:03:11;;;;;;;68.73;29.83;;;8.40;99.90;;;;;;6212853;23;20205;-85
2022/01/13 11:05:41;;;;;;;64.50;26.97;;;8.30;99.90;;;;;;6213563;23;20181;-87
2022/01/13 11:08:10;;;;;;;65.27;30.90;;;8.30;99.90;;;;;;6213233;23;20188;-85
2022/01/13 11:10:38;;;;;;;61.93;29.20;;;8.30;99.90;;;;;;6213203;23;20303;-85
2022/01/13 11:13:08;;;;;;;68.07;32.07;;;8.20;99.90;;;;;;6213509;23;20174;-86
2022/01/13 11:15:39;;;;;;;58.93;31.30;;;8.30;99.90;;;;;;6213172;23;20253;-85
2022/01/13 11:18:07;;;;;;;80.27;37.53;;;8.30;99.90;;;;;;6213052;23;20893;-85
2022/01/13 11:20:34;;;;;;;85.33;40.13;;;8.30;99.90;;;;;;6211906;23;20476;-85
2022/01/13 11:23:01;;;;;;;70.67;36.20;;;8.30;99.90;;;;;;6212186;23;20177;-85
2022/01/13 11:25:28;;;;;;;63.77;33.43;;;8.30;99.90;;;;;;6208239;23;20567;-85
2022/01/13 11:27:57;;;;;;;64.17;33.63;;;8.30;99.90;;;;;;6212613;23;20209;-85
2022/01/13 11:30:27;;;;;;;64.03;34.33;;;8.30;99.90;;;;;;6210875;23;20837;-85
2022/01/13 11:32:55;;;;;;;63.87;32.40;;;8.30;99.90;;;;;;6208528;23;20178;-86
2022/01/13 11:35:27;;;;;;;64.03;31.30;;;8.30;99.90;;;;;;6209042;23;20783;-83
2022/01/13 11:37:56;;;;;;;53.43;30.70;;;8.40;99.90;;;;;;6212137;23;20170;-85
2022/01/13 11:40:42;;;;;;;59.83;30.37;;;8.40;99.90;;;;;;6210737;23;20610;-85
2022/01/13 11:43:25;;;;;;;60.17;27.67;;;8.30;99.90;;;;;;6211138;23;20173;-87
2022/01/13 11:45:52;;;;;;;51.30;25.33;;;8.40;99.90;;;;;;6212905;23;20166;-86
2022/01/13 11:48:22;;;;;;;57.03;24.97;;;8.40;99.90;;;;;;6211382;23;20174;-85
2022/01/13 11:50:53;;;;;;;56.30;25.67;;;8.40;99.90;;;;;;6212201;23;20260;-86
2022/01/13 11:53:23;;;;;;;55.83;24.93;;;8.40;99.90;;;;;;6212690;23;20166;-84
2022/01/13 11:55:56;;;;;;;60.43;27.97;;;8.50;99.90;;;;;;6211520;23;20166;-88
2022/01/13 11:58:25;;;;;;;60.00;25.83;;;8.50;99.90;;;;;;6211522;23;20170;-85
2022/01/13 12:00:53;;;;;;;51.83;25.83;;;8.50;99.90;;;;;;6210927;23;20224;-85
2022/01/13 12:03:29;;;;;;;57.30;24.57;;;8.60;99.90;;;;;;6209496;23;20173;-83
2022/01/13 12:05:58;;;;;;;49.97;22.27;;;8.70;99.90;;;;;;6210977;23;20181;-85
2022/01/13 12:08:45;;;;;;;59.97;28.10;;;8.70;99.90;;;;;;6210726;23;20197;-84
2022/01/13 12:11:40;;;;;;;60.57;27.40;;;8.70;99.90;;;;;;6209925;23;20169;-82
2022/01/13 12:14:38;;;;;;;63.97;29.53;;;8.70;99.90;;;;;;6208818;23;20707;-84
2022/01/13 12:17:09;;;;;;;60.00;27.23;;;8.70;99.90;;;;;;6209455;23;20201;-83
2022/01/13 12:19:39;;;;;;;61.33;25.33;;;8.70;99.90;;;;;;6209442;23;20205;-81
2022/01/13 12:22:11;;;;;;;49.50;24.13;;;8.70;99.90;;;;;;6209911;23;20170;-83
2022/01/13 12:24:51;;;;;;;59.27;24.93;;;8.80;99.90;;;;;;6209895;23;20205;-81
2022/01/13 12:27:20;;;;;;;59.60;26.17;;;8.80;99.90;;;;;;6209886;23;20201;-84
2022/01/13 12:29:49;;;;;;;57.67;26.20;;;8.80;99.90;;;;;;6208937;23;20174;-83
2022/01/13 12:32:18;;;;;;;56.40;28.13;;;8.80;99.90;;;;;;6210260;23;20170;-84
2022/01/13 12:34:52;;;;;;;59.97;26.10;;;8.70;99.90;;;;;;6210015;23;20162;-83
2022/01/13 12:37:25;;;;;;;63.83;26.47;;;8.70;99.90;;;;;;6209413;23;20185;-83
2022/01/13 12:39:59;;;;;;;49.70;23.23;;;8.70;99.90;;;;;;6210200;23;20194;-84
2022/01/13 12:42:29;;;;;;;49.83;23.73;;;8.70;99.90;;;;;;6210331;23;20181;-84
2022/01/13 12:47:42;;;;;;;52.10;21.97;;;8.70;99.90;;;;;;6209765;23;20165;-82
2022/01/13 12:50:15;;;;;;;56.90;22.90;;;8.70;99.90;;;;;;6208468;23;20559;-83
2022/01/13 12:52:43;;;;;;;45.37;19.47;;;8.70;99.90;;;;;;6208399;23;20178;-83
2022/01/13 12:55:10;;;;;;;48.33;22.37;;;8.70;99.90;;;;;;6209399;23;20554;-81
2022/01/13 12:57:45;;;;;;;45.00;21.47;;;8.70;99.90;;;;;;6208633;23;20626;-83